sensor_id;sensor_type;location;lat;lon;timestamp;P1;durP1;ratioP1;P2;durP2;ratioP2
21527;SDS011;10925;49.102;-0.370;2023-06-14T00:01:08;50.45;;;33.03;;
21527;SDS011;10925;49.102;-0.370;2023-06-14T00:03:34;54.22;;;31.90;;
21527;SDS011;10925;49.102;-0.370;2023-06-14T00:06:01;46.75;;;32.88;;
21527;SDS011;10925;49.102;-0.370;2023-06-14T00:08:28;60.88;;;33.28;;
21527;SDS011;10925;49.102;-0.370;2023-06-14T00:10:53;53.83;;;31.85;;
21527;SDS011;10925;49.102;-0.370;2023-06-14T00:13:20;48.70;;;26.33;;
21527;SDS011;10925;49.102;-0.370;2023-06-14T00:15:47;50.60;;;28.55;;
21527;SDS011;10925;49.102;-0.370;2023-06-14T00:18:12;45.63;;;26.88;;
21527;SDS011;10925;49.102;-0.370;2023-06-14T00:20:39;47.90;;;26.40;;
21527;SDS011;10925;49.102;-0.370;2023-06-14T00:23:09;48.88;;;26.55;;
21527;SDS011;10925;49.102;-0.370;2023-06-14T00:25:36;44.05;;;25.27;;
21527;SDS011;10925;49.102;-0.370;2023-06-14T00:28:01;48.00;;;25.80;;
21527;SDS011;10925;49.102;-0.370;2023-06-14T00:30:28;45.22;;;27.10;;
21527;SDS011;10925;49.102;-0.370;2023-06-14T00:32:57;50.13;;;26.05;;
21527;SDS011;10925;49.102;-0.370;2023-06-14T00:35:24;43.75;;;26.52;;
21527;SDS011;10925;49.102;-0.370;2023-06-14T00:37:51;45.53;;;26.05;;
21527;SDS011;10925;49.102;-0.370;2023-06-14T00:40:18;51.33;;;27.13;;
21527;SDS011;10925;49.102;-0.370;2023-06-14T00:42:45;46.15;;;26.13;;
21527;SDS011;10925;49.102;-0.370;2023-06-14T00:45:12;50.30;;;26.80;;
21527;SDS011;10925;49.102;-0.370;2023-06-14T00:47:40;54.53;;;25.70;;
21527;SDS011;10925;49.102;-0.370;2023-06-14T00:50:08;52.00;;;26.77;;
21527;SDS011;10925;49.102;-0.370;2023-06-14T00:52:35;48.92;;;25.17;;
21527;SDS011;10925;49.102;-0.370;2023-06-14T00:55:02;54.67;;;27.83;;
21527;SDS011;10925;49.102;-0.370;2023-06-14T00:57:29;43.92;;;25.35;;
21527;SDS011;10925;49.102;-0.370;2023-06-14T00:59:56;48.22;;;25.48;;
21527;SDS011;10925;49.102;-0.370;2023-06-14T01:02:23;47.20;;;25.23;;
21527;SDS011;10925;49.102;-0.370;2023-06-14T01:04:51;51.65;;;25.40;;
21527;SDS011;10925;49.102;-0.370;2023-06-14T01:12:23;49.03;;;24.55;;
21527;SDS011;10925;49.102;-0.370;2023-06-14T01:14:51;51.53;;;25.17;;
21527;SDS011;10925;49.102;-0.370;2023-06-14T01:17:18;51.65;;;26.15;;
21527;SDS011;10925;49.102;-0.370;2023-06-14T01:19:47;46.38;;;24.73;;
21527;SDS011;10925;49.102;-0.370;2023-06-14T01:22:14;45.40;;;25.05;;
21527;SDS011;10925;49.102;-0.370;2023-06-14T01:24:39;41.75;;;24.27;;
21527;SDS011;10925;49.102;-0.370;2023-06-14T01:27:11;52.50;;;28.77;;
21527;SDS011;10925;49.102;-0.370;2023-06-14T01:29:39;46.85;;;21.70;;
21527;SDS011;10925;49.102;-0.370;2023-06-14T01:32:12;49.17;;;24.33;;
21527;SDS011;10925;49.102;-0.370;2023-06-14T01:34:39;53.85;;;24.63;;
21527;SDS011;10925;49.102;-0.370;2023-06-14T01:37:21;43.58;;;23.10;;
21527;SDS011;10925;49.102;-0.370;2023-06-14T01:39:48;41.88;;;22.60;;
21527;SDS011;10925;49.102;-0.370;2023-06-14T01:42:18;46.92;;;23.95;;
21527;SDS011;10925;49.102;-0.370;2023-06-14T01:44:45;53.58;;;23.45;;
21527;SDS011;10925;49.102;-0.370;2023-06-14T01:47:11;48.35;;;24.33;;
21527;SDS011;10925;49.102;-0.370;2023-06-14T01:49:38;50.22;;;23.83;;
21527;SDS011;10925;49.102;-0.370;2023-06-14T01:52:05;49.42;;;23.88;;
21527;SDS011;10925;49.102;-0.370;2023-06-14T01:54:31;51.80;;;24.35;;
21527;SDS011;10925;49.102;-0.370;2023-06-14T01:56:56;52.22;;;23.55;;
21527;SDS011;10925;49.102;-0.370;2023-06-14T01:59:23;51.72;;;23.27;;
21527;SDS011;10925;49.102;-0.370;2023-06-14T02:01:50;52.72;;;23.77;;
21527;SDS011;10925;49.102;-0.370;2023-06-14T02:04:17;49.40;;;22.80;;
21527;SDS011;10925;49.102;-0.370;2023-06-14T02:06:43;52.97;;;24.02;;
21527;SDS011;10925;49.102;-0.370;2023-06-14T02:09:09;46.80;;;23.27;;
21527;SDS011;10925;49.102;-0.370;2023-06-14T02:11:36;41.88;;;23.05;;
21527;SDS011;10925;49.102;-0.370;2023-06-14T02:14:02;49.63;;;22.90;;
21527;SDS011;10925;49.102;-0.370;2023-06-14T02:16:29;47.75;;;22.52;;
21527;SDS011;10925;49.102;-0.370;2023-06-14T02:18:56;53.35;;;21.75;;
21527;SDS011;10925;49.102;-0.370;2023-06-14T02:21:23;49.40;;;21.70;;
21527;SDS011;10925;49.102;-0.370;2023-06-14T02:23:49;40.85;;;20.95;;
21527;SDS011;10925;49.102;-0.370;2023-06-14T02:26:14;50.13;;;21.10;;
21527;SDS011;10925;49.102;-0.370;2023-06-14T02:33:31;51.33;;;23.40;;
21527;SDS011;10925;49.102;-0.370;2023-06-14T02:35:58;52.30;;;24.02;;
21527;SDS011;10925;49.102;-0.370;2023-06-14T02:38:25;57.72;;;25.90;;
21527;SDS011;10925;49.102;-0.370;2023-06-14T02:40:52;55.90;;;24.17;;
21527;SDS011;10925;49.102;-0.370;2023-06-14T02:43:17;50.67;;;25.23;;
21527;SDS011;10925;49.102;-0.370;2023-06-14T02:45:42;50.90;;;25.38;;
21527;SDS011;10925;49.102;-0.370;2023-06-14T02:48:09;57.10;;;27.55;;
21527;SDS011;10925;49.102;-0.370;2023-06-14T02:50:35;60.00;;;25.30;;
21527;SDS011;10925;49.102;-0.370;2023-06-14T02:53:02;47.22;;;25.52;;
21527;SDS011;10925;49.102;-0.370;2023-06-14T02:55:30;52.10;;;25.75;;
21527;SDS011;10925;49.102;-0.370;2023-06-14T02:57:56;62.72;;;25.75;;
21527;SDS011;10925;49.102;-0.370;2023-06-14T03:00:24;53.20;;;25.92;;
21527;SDS011;10925;49.102;-0.370;2023-06-14T03:02:51;52.40;;;25.65;;
21527;SDS011;10925;49.102;-0.370;2023-06-14T03:05:18;55.15;;;25.25;;
21527;SDS011;10925;49.102;-0.370;2023-06-14T03:07:48;52.97;;;25.02;;
21527;SDS011;10925;49.102;-0.370;2023-06-14T03:10:17;51.15;;;24.67;;
21527;SDS011;10925;49.102;-0.370;2023-06-14T03:12:45;60.03;;;25.67;;
21527;SDS011;10925;49.102;-0.370;2023-06-14T03:15:13;54.17;;;25.02;;
21527;SDS011;10925;49.102;-0.370;2023-06-14T03:17:40;50.78;;;24.52;;
21527;SDS011;10925;49.102;-0.370;2023-06-14T03:20:13;47.40;;;22.92;;
21527;SDS011;10925;49.102;-0.370;2023-06-14T03:22:40;55.33;;;23.02;;
21527;SDS011;10925;49.102;-0.370;2023-06-14T03:25:07;51.65;;;24.20;;
21527;SDS011;10925;49.102;-0.370;2023-06-14T03:27:38;58.05;;;24.35;;
21527;SDS011;10925;49.102;-0.370;2023-06-14T03:30:05;55.63;;;24.15;;
21527;SDS011;10925;49.102;-0.370;2023-06-14T03:32:32;51.90;;;22.55;;
21527;SDS011;10925;49.102;-0.370;2023-06-14T03:35:00;45.60;;;23.65;;
21527;SDS011;10925;49.102;-0.370;2023-06-14T03:37:27;49.40;;;23.45;;
21527;SDS011;10925;49.102;-0.370;2023-06-14T03:39:54;59.90;;;23.63;;
21527;SDS011;10925;49.102;-0.370;2023-06-14T03:42:23;50.72;;;23.25;;
21527;SDS011;10925;49.102;-0.370;2023-06-14T03:44:50;59.25;;;24.05;;
21527;SDS011;10925;49.102;-0.370;2023-06-14T03:47:16;58.03;;;24.02;;
21527;SDS011;10925;49.102;-0.370;2023-06-14T03:49:42;64.55;;;23.60;;
21527;SDS011;10925;49.102;-0.370;2023-06-14T03:52:09;59.30;;;23.27;;
21527;SDS011;10925;49.102;-0.370;2023-06-14T03:54:38;58.67;;;22.52;;
21527;SDS011;10925;49.102;-0.370;2023-06-14T03:57:04;54.88;;;23.02;;
21527;SDS011;10925;49.102;-0.370;2023-06-14T03:59:31;60.90;;;23.60;;
21527;SDS011;10925;49.102;-0.370;2023-06-14T04:01:58;53.28;;;22.27;;
21527;SDS011;10925;49.102;-0.370;2023-06-14T04:04:25;63.38;;;23.60;;
21527;SDS011;10925;49.102;-0.370;2023-06-14T04:06:57;61.72;;;23.52;;
21527;SDS011;10925;49.102;-0.370;2023-06-14T04:09:25;57.15;;;22.80;;
21527;SDS011;10925;49.102;-0.370;2023-06-14T04:11:52;63.20;;;23.75;;
21527;SDS011;10925;49.102;-0.370;2023-06-14T04:14:19;56.08;;;22.40;;
21527;SDS011;10925;49.102;-0.370;2023-06-14T04:17:01;58.88;;;21.98;;
21527;SDS011;10925;49.102;-0.370;2023-06-14T04:19:28;55.30;;;21.17;;
21527;SDS011;10925;49.102;-0.370;2023-06-14T04:21:57;69.50;;;22.40;;
21527;SDS011;10925;49.102;-0.370;2023-06-14T04:24:25;54.17;;;19.38;;
21527;SDS011;10925;49.102;-0.370;2023-06-14T04:26:55;58.50;;;21.08;;
21527;SDS011;10925;49.102;-0.370;2023-06-14T04:29:25;54.78;;;20.13;;
21527;SDS011;10925;49.102;-0.370;2023-06-14T04:31:53;55.17;;;22.02;;
21527;SDS011;10925;49.102;-0.370;2023-06-14T04:34:19;61.70;;;20.52;;
21527;SDS011;10925;49.102;-0.370;2023-06-14T04:36:54;57.15;;;19.27;;
21527;SDS011;10925;49.102;-0.370;2023-06-14T04:39:28;54.83;;;19.30;;
21527;SDS011;10925;49.102;-0.370;2023-06-14T04:41:55;59.08;;;19.92;;
21527;SDS011;10925;49.102;-0.370;2023-06-14T04:44:22;49.67;;;18.13;;
21527;SDS011;10925;49.102;-0.370;2023-06-14T04:46:57;52.47;;;18.15;;
21527;SDS011;10925;49.102;-0.370;2023-06-14T04:49:25;46.53;;;17.27;;
21527;SDS011;10925;49.102;-0.370;2023-06-14T04:51:53;49.00;;;18.10;;
21527;SDS011;10925;49.102;-0.370;2023-06-14T04:54:38;51.05;;;17.08;;
21527;SDS011;10925;49.102;-0.370;2023-06-14T04:57:06;42.80;;;15.88;;
21527;SDS011;10925;49.102;-0.370;2023-06-14T04:59:32;44.72;;;15.50;;
21527;SDS011;10925;49.102;-0.370;2023-06-14T05:02:00;47.88;;;17.40;;
21527;SDS011;10925;49.102;-0.370;2023-06-14T05:04:27;43.80;;;16.52;;
21527;SDS011;10925;49.102;-0.370;2023-06-14T05:06:53;50.55;;;16.30;;
21527;SDS011;10925;49.102;-0.370;2023-06-14T05:09:19;54.72;;;16.20;;
21527;SDS011;10925;49.102;-0.370;2023-06-14T05:11:46;54.67;;;16.02;;
21527;SDS011;10925;49.102;-0.370;2023-06-14T05:14:14;46.40;;;15.02;;
21527;SDS011;10925;49.102;-0.370;2023-06-14T05:16:40;53.78;;;15.73;;
21527;SDS011;10925;49.102;-0.370;2023-06-14T05:19:07;54.80;;;16.40;;
21527;SDS011;10925;49.102;-0.370;2023-06-14T05:21:34;42.78;;;14.52;;
21527;SDS011;10925;49.102;-0.370;2023-06-14T05:24:07;49.20;;;15.68;;
21527;SDS011;10925;49.102;-0.370;2023-06-14T05:26:34;44.80;;;14.73;;
21527;SDS011;10925;49.102;-0.370;2023-06-14T05:29:00;59.53;;;14.27;;
21527;SDS011;10925;49.102;-0.370;2023-06-14T05:31:27;44.55;;;14.32;;
21527;SDS011;10925;49.102;-0.370;2023-06-14T05:33:54;54.13;;;14.77;;
21527;SDS011;10925;49.102;-0.370;2023-06-14T05:36:21;60.95;;;15.90;;
21527;SDS011;10925;49.102;-0.370;2023-06-14T05:38:47;52.13;;;14.93;;
21527;SDS011;10925;49.102;-0.370;2023-06-14T05:41:14;45.58;;;15.57;;
21527;SDS011;10925;49.102;-0.370;2023-06-14T05:43:39;57.22;;;14.48;;
21527;SDS011;10925;49.102;-0.370;2023-06-14T05:46:06;44.72;;;16.17;;
21527;SDS011;10925;49.102;-0.370;2023-06-14T05:48:32;47.70;;;15.45;;
21527;SDS011;10925;49.102;-0.370;2023-06-14T05:51:01;39.63;;;13.35;;
21527;SDS011;10925;49.102;-0.370;2023-06-14T05:53:28;46.78;;;15.50;;
21527;SDS011;10925;49.102;-0.370;2023-06-14T05:55:55;48.80;;;14.32;;
21527;SDS011;10925;49.102;-0.370;2023-06-14T05:58:21;41.30;;;13.52;;
21527;SDS011;10925;49.102;-0.370;2023-06-14T06:00:48;36.20;;;12.65;;
21527;SDS011;10925;49.102;-0.370;2023-06-14T06:03:15;35.78;;;11.38;;
21527;SDS011;10925;49.102;-0.370;2023-06-14T06:05:42;36.70;;;11.15;;
21527;SDS011;10925;49.102;-0.370;2023-06-14T06:08:08;46.22;;;10.10;;
21527;SDS011;10925;49.102;-0.370;2023-06-14T06:10:55;38.20;;;10.50;;
21527;SDS011;10925;49.102;-0.370;2023-06-14T06:13:21;39.35;;;10.15;;
21527;SDS011;10925;49.102;-0.370;2023-06-14T06:15:48;26.20;;;8.57;;
21527;SDS011;10925;49.102;-0.370;2023-06-14T06:18:15;39.25;;;9.00;;
21527;SDS011;10925;49.102;-0.370;2023-06-14T06:20:42;38.80;;;9.40;;
21527;SDS011;10925;49.102;-0.370;2023-06-14T06:23:10;28.73;;;9.15;;
21527;SDS011;10925;49.102;-0.370;2023-06-14T06:25:37;30.00;;;8.55;;
21527;SDS011;10925;49.102;-0.370;2023-06-14T06:28:04;40.13;;;8.90;;
21527;SDS011;10925;49.102;-0.370;2023-06-14T06:30:31;37.05;;;9.90;;
21527;SDS011;10925;49.102;-0.370;2023-06-14T06:32:57;30.35;;;8.45;;
21527;SDS011;10925;49.102;-0.370;2023-06-14T06:35:24;41.25;;;9.05;;
21527;SDS011;10925;49.102;-0.370;2023-06-14T06:37:51;37.00;;;9.30;;
21527;SDS011;10925;49.102;-0.370;2023-06-14T06:40:19;34.03;;;8.93;;
21527;SDS011;10925;49.102;-0.370;2023-06-14T06:42:46;45.33;;;8.57;;
21527;SDS011;10925;49.102;-0.370;2023-06-14T06:45:13;48.40;;;9.35;;
21527;SDS011;10925;49.102;-0.370;2023-06-14T06:47:40;50.95;;;10.25;;
21527;SDS011;10925;49.102;-0.370;2023-06-14T06:50:07;31.55;;;8.35;;
21527;SDS011;10925;49.102;-0.370;2023-06-14T06:52:34;37.15;;;9.27;;
21527;SDS011;10925;49.102;-0.370;2023-06-14T06:55:01;40.10;;;9.45;;
21527;SDS011;10925;49.102;-0.370;2023-06-14T06:57:28;36.63;;;9.27;;
21527;SDS011;10925;49.102;-0.370;2023-06-14T06:59:58;42.85;;;8.77;;
21527;SDS011;10925;49.102;-0.370;2023-06-14T07:02:25;27.65;;;7.78;;
21527;SDS011;10925;49.102;-0.370;2023-06-14T07:04:52;34.28;;;7.63;;
21527;SDS011;10925;49.102;-0.370;2023-06-14T07:07:18;33.70;;;7.65;;
21527;SDS011;10925;49.102;-0.370;2023-06-14T07:09:45;37.38;;;8.88;;
21527;SDS011;10925;49.102;-0.370;2023-06-14T07:12:12;30.90;;;8.38;;
21527;SDS011;10925;49.102;-0.370;2023-06-14T07:14:38;37.30;;;8.38;;
21527;SDS011;10925;49.102;-0.370;2023-06-14T07:17:04;40.88;;;9.00;;
21527;SDS011;10925;49.102;-0.370;2023-06-14T07:19:32;36.55;;;9.00;;
21527;SDS011;10925;49.102;-0.370;2023-06-14T07:21:59;28.70;;;8.45;;
21527;SDS011;10925;49.102;-0.370;2023-06-14T07:24:25;33.40;;;8.35;;
21527;SDS011;10925;49.102;-0.370;2023-06-14T07:26:50;31.85;;;7.80;;
21527;SDS011;10925;49.102;-0.370;2023-06-14T07:29:17;39.80;;;8.32;;
21527;SDS011;10925;49.102;-0.370;2023-06-14T07:31:44;29.00;;;7.38;;
21527;SDS011;10925;49.102;-0.370;2023-06-14T07:34:11;30.67;;;7.00;;
21527;SDS011;10925;49.102;-0.370;2023-06-14T07:36:38;41.13;;;7.72;;
21527;SDS011;10925;49.102;-0.370;2023-06-14T07:39:03;28.95;;;7.25;;
21527;SDS011;10925;49.102;-0.370;2023-06-14T07:41:32;37.65;;;7.57;;
21527;SDS011;10925;49.102;-0.370;2023-06-14T07:43:59;30.27;;;7.88;;
21527;SDS011;10925;49.102;-0.370;2023-06-14T07:46:26;33.00;;;7.72;;
21527;SDS011;10925;49.102;-0.370;2023-06-14T07:48:53;31.75;;;7.80;;
21527;SDS011;10925;49.102;-0.370;2023-06-14T07:51:20;22.35;;;6.82;;
21527;SDS011;10925;49.102;-0.370;2023-06-14T07:53:48;27.02;;;8.35;;
21527;SDS011;10925;49.102;-0.370;2023-06-14T07:56:14;32.50;;;8.07;;
21527;SDS011;10925;49.102;-0.370;2023-06-14T07:58:41;28.27;;;7.90;;
21527;SDS011;10925;49.102;-0.370;2023-06-14T08:01:08;31.75;;;7.82;;
21527;SDS011;10925;49.102;-0.370;2023-06-14T08:03:35;30.10;;;7.43;;
21527;SDS011;10925;49.102;-0.370;2023-06-14T08:06:02;34.42;;;9.75;;
21527;SDS011;10925;49.102;-0.370;2023-06-14T08:08:29;31.45;;;8.02;;
21527;SDS011;10925;49.102;-0.370;2023-06-14T08:10:55;28.48;;;8.50;;
21527;SDS011;10925;49.102;-0.370;2023-06-14T08:13:22;28.45;;;8.52;;
21527;SDS011;10925;49.102;-0.370;2023-06-14T08:15:49;42.92;;;8.63;;
21527;SDS011;10925;49.102;-0.370;2023-06-14T08:18:16;27.25;;;7.75;;
21527;SDS011;10925;49.102;-0.370;2023-06-14T08:20:43;32.60;;;9.98;;
21527;SDS011;10925;49.102;-0.370;2023-06-14T08:23:10;45.45;;;9.80;;
21527;SDS011;10925;49.102;-0.370;2023-06-14T08:25:36;42.70;;;8.60;;
21527;SDS011;10925;49.102;-0.370;2023-06-14T08:28:02;35.17;;;8.68;;
21527;SDS011;10925;49.102;-0.370;2023-06-14T08:30:28;25.60;;;8.18;;
21527;SDS011;10925;49.102;-0.370;2023-06-14T08:32:55;29.48;;;8.60;;
21527;SDS011;10925;49.102;-0.370;2023-06-14T08:35:40;26.80;;;8.80;;
21527;SDS011;10925;49.102;-0.370;2023-06-14T08:38:07;37.38;;;8.65;;
21527;SDS011;10925;49.102;-0.370;2023-06-14T08:40:36;33.22;;;9.55;;
21527;SDS011;10925;49.102;-0.370;2023-06-14T08:43:03;34.28;;;10.68;;
21527;SDS011;10925;49.102;-0.370;2023-06-14T08:45:30;34.00;;;11.45;;
21527;SDS011;10925;49.102;-0.370;2023-06-14T08:47:58;32.65;;;10.70;;
21527;SDS011;10925;49.102;-0.370;2023-06-14T08:50:27;36.17;;;8.75;;
21527;SDS011;10925;49.102;-0.370;2023-06-14T08:52:58;27.45;;;8.60;;
21527;SDS011;10925;49.102;-0.370;2023-06-14T08:58:25;34.90;;;9.38;;
21527;SDS011;10925;49.102;-0.370;2023-06-14T09:00:52;33.80;;;8.60;;
21527;SDS011;10925;49.102;-0.370;2023-06-14T09:06:08;31.63;;;8.38;;
21527;SDS011;10925;49.102;-0.370;2023-06-14T09:08:40;28.00;;;7.55;;
21527;SDS011;10925;49.102;-0.370;2023-06-14T09:11:16;31.88;;;8.82;;
21527;SDS011;10925;49.102;-0.370;2023-06-14T09:13:45;37.08;;;9.32;;
21527;SDS011;10925;49.102;-0.370;2023-06-14T09:16:12;34.78;;;8.70;;
21527;SDS011;10925;49.102;-0.370;2023-06-14T09:18:39;31.70;;;9.07;;
21527;SDS011;10925;49.102;-0.370;2023-06-14T09:21:07;25.25;;;9.82;;
21527;SDS011;10925;49.102;-0.370;2023-06-14T09:23:40;23.98;;;9.45;;
21527;SDS011;10925;49.102;-0.370;2023-06-14T09:26:10;26.88;;;9.25;;
21527;SDS011;10925;49.102;-0.370;2023-06-14T09:28:43;31.92;;;9.20;;
21527;SDS011;10925;49.102;-0.370;2023-06-14T09:31:17;29.92;;;9.27;;
21527;SDS011;10925;49.102;-0.370;2023-06-14T09:33:45;28.90;;;10.32;;
21527;SDS011;10925;49.102;-0.370;2023-06-14T09:36:19;25.90;;;8.77;;
21527;SDS011;10925;49.102;-0.370;2023-06-14T09:41:27;31.33;;;8.45;;
21527;SDS011;10925;49.102;-0.370;2023-06-14T09:43:57;28.52;;;9.32;;
21527;SDS011;10925;49.102;-0.370;2023-06-14T09:46:27;26.98;;;8.88;;
21527;SDS011;10925;49.102;-0.370;2023-06-14T09:48:53;25.83;;;8.60;;
21527;SDS011;10925;49.102;-0.370;2023-06-14T09:51:21;22.38;;;8.50;;
21527;SDS011;10925;49.102;-0.370;2023-06-14T09:53:49;30.38;;;8.77;;
21527;SDS011;10925;49.102;-0.370;2023-06-14T09:56:23;23.75;;;7.85;;
21527;SDS011;10925;49.102;-0.370;2023-06-14T09:58:59;21.58;;;7.32;;
21527;SDS011;10925;49.102;-0.370;2023-06-14T10:01:30;23.23;;;8.55;;
21527;SDS011;10925;49.102;-0.370;2023-06-14T10:04:05;23.20;;;7.93;;
21527;SDS011;10925;49.102;-0.370;2023-06-14T10:06:35;25.73;;;8.30;;
21527;SDS011;10925;49.102;-0.370;2023-06-14T10:09:02;17.73;;;7.75;;
21527;SDS011;10925;49.102;-0.370;2023-06-14T10:11:28;26.23;;;7.97;;
21527;SDS011;10925;49.102;-0.370;2023-06-14T10:13:57;26.50;;;8.48;;
21527;SDS011;10925;49.102;-0.370;2023-06-14T10:16:30;21.73;;;8.07;;
21527;SDS011;10925;49.102;-0.370;2023-06-14T10:21:32;29.85;;;9.48;;
21527;SDS011;10925;49.102;-0.370;2023-06-14T10:23:59;22.98;;;7.55;;
21527;SDS011;10925;49.102;-0.370;2023-06-14T10:26:27;23.52;;;8.18;;
21527;SDS011;10925;49.102;-0.370;2023-06-14T10:29:08;24.30;;;8.30;;
21527;SDS011;10925;49.102;-0.370;2023-06-14T10:34:06;24.35;;;8.85;;
21527;SDS011;10925;49.102;-0.370;2023-06-14T10:36:33;24.70;;;8.43;;
21527;SDS011;10925;49.102;-0.370;2023-06-14T10:39:09;25.65;;;8.07;;
21527;SDS011;10925;49.102;-0.370;2023-06-14T10:41:36;23.33;;;8.13;;
21527;SDS011;10925;49.102;-0.370;2023-06-14T10:44:10;26.50;;;7.97;;
21527;SDS011;10925;49.102;-0.370;2023-06-14T10:46:35;20.90;;;7.95;;
21527;SDS011;10925;49.102;-0.370;2023-06-14T10:49:02;27.60;;;7.82;;
21527;SDS011;10925;49.102;-0.370;2023-06-14T10:51:30;27.08;;;7.35;;
21527;SDS011;10925;49.102;-0.370;2023-06-14T10:54:11;22.15;;;7.40;;
21527;SDS011;10925;49.102;-0.370;2023-06-14T10:56:39;20.52;;;7.78;;
21527;SDS011;10925;49.102;-0.370;2023-06-14T10:59:13;22.08;;;6.65;;
21527;SDS011;10925;49.102;-0.370;2023-06-14T11:07:43;23.35;;;7.68;;
21527;SDS011;10925;49.102;-0.370;2023-06-14T11:12:47;29.95;;;7.90;;
21527;SDS011;10925;49.102;-0.370;2023-06-14T11:15:13;23.15;;;7.40;;
21527;SDS011;10925;49.102;-0.370;2023-06-14T11:17:49;19.98;;;7.38;;
21527;SDS011;10925;49.102;-0.370;2023-06-14T11:22:46;19.42;;;7.63;;
21527;SDS011;10925;49.102;-0.370;2023-06-14T11:25:13;24.55;;;7.45;;
21527;SDS011;10925;49.102;-0.370;2023-06-14T11:27:41;22.20;;;7.53;;
21527;SDS011;10925;49.102;-0.370;2023-06-14T11:30:08;19.75;;;7.63;;
21527;SDS011;10925;49.102;-0.370;2023-06-14T11:32:36;20.45;;;7.65;;
21527;SDS011;10925;49.102;-0.370;2023-06-14T11:35:02;25.08;;;7.95;;
21527;SDS011;10925;49.102;-0.370;2023-06-14T11:37:29;21.80;;;7.95;;
21527;SDS011;10925;49.102;-0.370;2023-06-14T11:39:56;21.65;;;8.05;;
21527;SDS011;10925;49.102;-0.370;2023-06-14T11:42:24;17.92;;;6.53;;
21527;SDS011;10925;49.102;-0.370;2023-06-14T11:44:56;21.08;;;7.13;;
21527;SDS011;10925;49.102;-0.370;2023-06-14T11:47:35;19.98;;;7.80;;
21527;SDS011;10925;49.102;-0.370;2023-06-14T11:50:01;17.45;;;6.78;;
21527;SDS011;10925;49.102;-0.370;2023-06-14T11:52:27;19.00;;;6.88;;
21527;SDS011;10925;49.102;-0.370;2023-06-14T11:54:53;22.17;;;7.05;;
21527;SDS011;10925;49.102;-0.370;2023-06-14T11:57:18;20.35;;;7.45;;
21527;SDS011;10925;49.102;-0.370;2023-06-14T11:59:45;23.85;;;7.50;;
21527;SDS011;10925;49.102;-0.370;2023-06-14T12:02:17;16.77;;;7.45;;
21527;SDS011;10925;49.102;-0.370;2023-06-14T12:04:47;19.50;;;6.65;;
21527;SDS011;10925;49.102;-0.370;2023-06-14T12:07:17;12.52;;;7.05;;
21527;SDS011;10925;49.102;-0.370;2023-06-14T12:12:25;16.73;;;6.70;;
21527;SDS011;10925;49.102;-0.370;2023-06-14T12:14:51;16.77;;;7.38;;
21527;SDS011;10925;49.102;-0.370;2023-06-14T12:17:18;15.70;;;7.43;;
21527;SDS011;10925;49.102;-0.370;2023-06-14T12:19:46;15.10;;;7.40;;
21527;SDS011;10925;49.102;-0.370;2023-06-14T12:22:13;17.63;;;6.85;;
21527;SDS011;10925;49.102;-0.370;2023-06-14T12:24:39;17.98;;;6.68;;
21527;SDS011;10925;49.102;-0.370;2023-06-14T12:27:07;13.63;;;7.10;;
21527;SDS011;10925;49.102;-0.370;2023-06-14T12:29:34;16.77;;;7.35;;
21527;SDS011;10925;49.102;-0.370;2023-06-14T12:32:02;15.48;;;6.60;;
21527;SDS011;10925;49.102;-0.370;2023-06-14T12:34:29;17.33;;;7.60;;
21527;SDS011;10925;49.102;-0.370;2023-06-14T12:36:57;17.85;;;7.20;;
21527;SDS011;10925;49.102;-0.370;2023-06-14T12:39:22;16.75;;;6.93;;
21527;SDS011;10925;49.102;-0.370;2023-06-14T12:41:48;16.73;;;7.13;;
21527;SDS011;10925;49.102;-0.370;2023-06-14T12:44:18;15.60;;;6.18;;
21527;SDS011;10925;49.102;-0.370;2023-06-14T12:46:43;17.77;;;6.25;;
21527;SDS011;10925;49.102;-0.370;2023-06-14T12:49:11;21.55;;;6.80;;
21527;SDS011;10925;49.102;-0.370;2023-06-14T12:51:38;19.42;;;6.45;;
21527;SDS011;10925;49.102;-0.370;2023-06-14T12:54:06;21.10;;;7.40;;
21527;SDS011;10925;49.102;-0.370;2023-06-14T12:56:38;16.50;;;6.85;;
21527;SDS011;10925;49.102;-0.370;2023-06-14T13:01:58;18.17;;;6.80;;
21527;SDS011;10925;49.102;-0.370;2023-06-14T13:04:25;14.07;;;6.65;;
21527;SDS011;10925;49.102;-0.370;2023-06-14T13:06:52;16.85;;;8.00;;
21527;SDS011;10925;49.102;-0.370;2023-06-14T13:09:17;17.75;;;6.55;;
21527;SDS011;10925;49.102;-0.370;2023-06-14T13:11:44;19.38;;;7.50;;
21527;SDS011;10925;49.102;-0.370;2023-06-14T13:14:13;16.95;;;6.57;;
21527;SDS011;10925;49.102;-0.370;2023-06-14T13:16:38;20.85;;;7.28;;
21527;SDS011;10925;49.102;-0.370;2023-06-14T13:19:05;16.98;;;7.53;;
21527;SDS011;10925;49.102;-0.370;2023-06-14T13:21:32;20.83;;;7.03;;
21527;SDS011;10925;49.102;-0.370;2023-06-14T13:23:59;15.27;;;6.90;;
21527;SDS011;10925;49.102;-0.370;2023-06-14T13:26:27;15.90;;;7.05;;
21527;SDS011;10925;49.102;-0.370;2023-06-14T13:28:53;19.08;;;7.25;;
21527;SDS011;10925;49.102;-0.370;2023-06-14T13:31:20;14.63;;;7.25;;
21527;SDS011;10925;49.102;-0.370;2023-06-14T13:33:47;17.48;;;8.15;;
21527;SDS011;10925;49.102;-0.370;2023-06-14T13:36:14;18.23;;;7.75;;
21527;SDS011;10925;49.102;-0.370;2023-06-14T13:38:39;20.45;;;7.68;;
21527;SDS011;10925;49.102;-0.370;2023-06-14T13:41:06;16.17;;;8.27;;
21527;SDS011;10925;49.102;-0.370;2023-06-14T13:43:33;16.58;;;7.82;;
21527;SDS011;10925;49.102;-0.370;2023-06-14T13:46:00;14.98;;;8.20;;
21527;SDS011;10925;49.102;-0.370;2023-06-14T13:48:25;15.38;;;7.88;;
21527;SDS011;10925;49.102;-0.370;2023-06-14T13:50:51;16.10;;;7.60;;
21527;SDS011;10925;49.102;-0.370;2023-06-14T13:53:16;19.20;;;9.20;;
21527;SDS011;10925;49.102;-0.370;2023-06-14T13:55:42;21.27;;;8.38;;
21527;SDS011;10925;49.102;-0.370;2023-06-14T13:58:07;16.48;;;8.18;;
21527;SDS011;10925;49.102;-0.370;2023-06-14T14:00:34;15.95;;;8.02;;
21527;SDS011;10925;49.102;-0.370;2023-06-14T14:03:03;17.90;;;7.68;;
21527;SDS011;10925;49.102;-0.370;2023-06-14T14:05:30;13.52;;;7.72;;
21527;SDS011;10925;49.102;-0.370;2023-06-14T14:07:56;15.95;;;8.05;;
21527;SDS011;10925;49.102;-0.370;2023-06-14T14:10:24;15.07;;;7.90;;
21527;SDS011;10925;49.102;-0.370;2023-06-14T14:12:51;14.43;;;7.65;;
21527;SDS011;10925;49.102;-0.370;2023-06-14T14:15:19;18.38;;;7.78;;
21527;SDS011;10925;49.102;-0.370;2023-06-14T14:17:46;14.52;;;8.10;;
21527;SDS011;10925;49.102;-0.370;2023-06-14T14:20:14;14.90;;;7.65;;
21527;SDS011;10925;49.102;-0.370;2023-06-14T14:22:43;17.00;;;7.57;;
21527;SDS011;10925;49.102;-0.370;2023-06-14T14:25:09;15.25;;;7.50;;
21527;SDS011;10925;49.102;-0.370;2023-06-14T14:27:37;14.45;;;6.90;;
21527;SDS011;10925;49.102;-0.370;2023-06-14T14:30:03;12.27;;;7.43;;
21527;SDS011;10925;49.102;-0.370;2023-06-14T14:32:29;19.13;;;7.15;;
21527;SDS011;10925;49.102;-0.370;2023-06-14T14:34:55;16.73;;;7.07;;
21527;SDS011;10925;49.102;-0.370;2023-06-14T14:37:23;15.75;;;7.15;;
21527;SDS011;10925;49.102;-0.370;2023-06-14T14:39:50;14.18;;;6.93;;
21527;SDS011;10925;49.102;-0.370;2023-06-14T14:42:17;20.80;;;7.70;;
21527;SDS011;10925;49.102;-0.370;2023-06-14T14:44:47;13.25;;;6.78;;
21527;SDS011;10925;49.102;-0.370;2023-06-14T14:47:12;14.45;;;7.68;;
21527;SDS011;10925;49.102;-0.370;2023-06-14T14:49:39;12.38;;;6.55;;
21527;SDS011;10925;49.102;-0.370;2023-06-14T14:52:06;15.43;;;6.22;;
21527;SDS011;10925;49.102;-0.370;2023-06-14T14:54:49;10.13;;;7.03;;
21527;SDS011;10925;49.102;-0.370;2023-06-14T14:57:16;13.75;;;7.88;;
21527;SDS011;10925;49.102;-0.370;2023-06-14T14:59:41;14.77;;;7.63;;